createdAt,value
2018-06-12T01:41:10.014Z,17.70
2018-06-12T01:43:43.997Z,17.60
2018-06-12T01:46:18.102Z,17.40
2018-06-12T01:48:52.133Z,17.30
2018-06-12T01:51:26.214Z,17.30
2018-06-12T01:54:00.274Z,17.30
2018-06-12T01:56:34.327Z,17.50
2018-06-12T01:59:08.306Z,17.60
2018-06-12T02:01:42.369Z,17.40
2018-06-12T02:04:16.494Z,17.50
2018-06-12T02:06:50.434Z,17.30
2018-06-12T02:09:24.331Z,17.30
2018-06-12T02:11:58.442Z,17.30
2018-06-12T02:14:32.559Z,17.30
2018-06-12T02:17:06.622Z,17.30
2018-06-12T02:19:40.635Z,17.30
2018-06-12T02:22:14.777Z,17.30
2018-06-12T02:24:48.724Z,17.30
2018-06-12T02:27:22.668Z,17.40
2018-06-12T02:29:57.461Z,17.50
2018-06-12T02:32:31.559Z,17.50
2018-06-12T02:35:05.641Z,17.40
2018-06-12T02:37:39.768Z,17.40
2018-06-12T02:40:13.903Z,17.30
2018-06-12T02:42:47.971Z,17.40
2018-06-12T02:45:22.042Z,17.40
2018-06-12T02:47:56.060Z,17.40
2018-06-12T02:50:31.045Z,17.50
2018-06-12T02:53:05.656Z,17.50
2018-06-12T02:55:39.599Z,17.50
2018-06-12T02:58:13.456Z,17.50
2018-06-12T03:00:47.473Z,17.50
2018-06-12T03:03:21.525Z,17.50
2018-06-12T03:05:55.570Z,17.60
2018-06-12T03:08:30.371Z,17.50
2018-06-12T03:11:04.528Z,17.50
2018-06-12T03:13:39.393Z,17.60
2018-06-12T03:16:13.446Z,17.60
2018-06-12T03:18:48.278Z,17.50
2018-06-12T03:21:22.397Z,17.50
2018-06-12T03:23:56.581Z,17.60
2018-06-12T03:26:31.297Z,17.60
2018-06-12T03:29:05.418Z,17.50
2018-06-12T03:31:39.554Z,17.40
2018-06-12T03:34:14.377Z,17.20
2018-06-12T03:36:48.706Z,17.20
2018-06-12T03:39:22.854Z,17.30
2018-06-12T03:41:58.025Z,17.40
2018-06-12T03:44:32.254Z,17.30
2018-06-12T03:47:06.338Z,17.50
2018-06-12T03:49:40.574Z,17.40
2018-06-12T03:52:15.058Z,17.30
2018-06-12T03:54:49.284Z,17.20
2018-06-12T03:57:23.397Z,17.30
2018-06-12T03:59:57.530Z,17.20
2018-06-12T04:02:31.737Z,17.20
2018-06-12T04:05:05.966Z,17.20
2018-06-12T04:07:40.225Z,17.30
2018-06-12T04:10:14.371Z,17.20
2018-06-12T04:12:48.523Z,17.30
2018-06-12T04:15:22.726Z,17.40
2018-06-12T04:17:56.837Z,17.30
2018-06-12T04:20:31.798Z,17.20
2018-06-12T04:23:05.926Z,17.20
2018-06-12T04:25:40.123Z,17.00
2018-06-12T04:28:14.325Z,17.00
2018-06-12T04:30:48.450Z,17.00
2018-06-12T04:33:22.620Z,16.90
2018-06-12T04:35:57.754Z,17.00
2018-06-12T04:38:32.014Z,17.00
2018-06-12T04:41:06.231Z,16.90
2018-06-12T04:43:40.271Z,17.00
2018-06-12T04:46:14.433Z,17.00
2018-06-12T04:48:48.603Z,17.00
2018-06-12T04:51:22.690Z,17.00
2018-06-12T04:53:56.804Z,17.00
2018-06-12T04:56:30.950Z,17.10
2018-06-12T04:59:05.729Z,17.10
2018-06-12T05:01:39.944Z,17.10
2018-06-12T05:04:14.106Z,17.00
2018-06-12T05:06:48.321Z,17.20
2018-06-12T05:09:23.259Z,17.00
2018-06-12T05:11:57.384Z,17.00
2018-06-12T05:14:31.479Z,17.00
2018-06-12T05:17:05.590Z,17.00
2018-06-12T05:19:39.872Z,16.90
2018-06-12T05:22:14.148Z,17.00
2018-06-12T05:24:48.319Z,17.00
2018-06-12T05:27:23.269Z,16.90
2018-06-12T05:29:57.386Z,16.90
2018-06-12T05:32:31.270Z,16.90
2018-06-12T05:35:05.365Z,16.80
2018-06-12T05:37:39.353Z,16.80
2018-06-12T05:40:13.385Z,16.90
2018-06-12T05:42:47.484Z,16.90
2018-06-12T05:45:21.456Z,16.80
2018-06-12T05:47:55.753Z,16.80
2018-06-12T05:50:29.926Z,17.00
2018-06-12T05:53:04.088Z,16.80
2018-06-12T05:55:38.449Z,16.90
2018-06-12T05:58:12.301Z,17.00
2018-06-12T06:00:46.595Z,16.90
2018-06-12T06:03:20.743Z,16.80
2018-06-12T06:05:54.925Z,16.80
2018-06-12T06:08:29.100Z,16.90
2018-06-12T06:11:03.310Z,16.80
2018-06-12T06:13:37.552Z,16.80
2018-06-12T06:16:11.666Z,16.70
2018-06-12T06:18:45.882Z,16.80
2018-06-12T06:21:20.040Z,16.60
2018-06-12T06:23:54.204Z,16.60
2018-06-12T06:26:28.497Z,16.50
2018-06-12T06:29:03.490Z,16.50
2018-06-12T06:31:37.673Z,16.50
2018-06-12T06:34:11.831Z,16.70
2018-06-12T06:36:45.940Z,16.60
2018-06-12T06:39:20.056Z,16.40
2018-06-12T06:41:54.313Z,16.40
2018-06-12T06:44:28.524Z,16.50
2018-06-12T06:47:02.977Z,16.50
2018-06-12T06:49:37.117Z,16.50
2018-06-12T06:52:11.291Z,16.50
2018-06-12T06:54:45.437Z,16.60
2018-06-12T06:57:19.634Z,16.60
2018-06-12T06:59:53.884Z,16.50
2018-06-12T07:02:28.011Z,16.50
2018-06-12T07:05:02.259Z,16.40
2018-06-12T07:07:36.479Z,16.40
2018-06-12T07:10:10.587Z,16.60
2018-06-12T07:12:44.818Z,16.60
2018-06-12T07:15:18.972Z,16.70
2018-06-12T07:17:53.885Z,16.60
2018-06-12T07:20:28.066Z,16.60
2018-06-12T07:23:02.905Z,16.70
2018-06-12T07:25:37.026Z,16.70
2018-06-12T07:28:11.582Z,16.70
2018-06-12T07:30:46.426Z,16.70
2018-06-12T07:33:21.426Z,16.80
2018-06-12T07:35:55.619Z,16.80
2018-06-12T07:38:30.488Z,16.80
2018-06-12T07:41:05.127Z,16.80
2018-06-12T07:43:39.295Z,16.70
2018-06-12T07:46:13.401Z,16.80
2018-06-12T07:48:47.522Z,16.80
2018-06-12T07:51:21.693Z,16.80
2018-06-12T07:53:55.991Z,16.70
2018-06-12T07:56:30.187Z,16.80
2018-06-12T07:59:04.391Z,16.80
2018-06-12T08:01:38.612Z,16.80
2018-06-12T08:04:12.946Z,16.70
2018-06-12T08:06:47.195Z,16.80
2018-06-12T08:09:21.335Z,16.70
2018-06-12T08:11:56.125Z,16.70
2018-06-12T08:14:30.397Z,16.80
2018-06-12T08:17:04.550Z,16.90
2018-06-12T08:19:39.567Z,16.70
2018-06-12T08:22:14.218Z,16.60
2018-06-12T08:24:48.384Z,16.80
2018-06-12T08:27:23.247Z,16.80
2018-06-12T08:29:57.439Z,16.70
2018-06-12T08:32:31.606Z,16.70
2018-06-12T08:35:05.815Z,16.60
2018-06-12T08:37:39.976Z,16.70
2018-06-12T08:40:14.158Z,16.90
2018-06-12T08:42:48.318Z,17.10
2018-06-12T08:45:22.448Z,17.00
2018-06-12T08:47:56.785Z,17.10
2018-06-12T08:50:31.015Z,17.00
2018-06-12T08:53:05.636Z,17.10
2018-06-12T08:55:39.886Z,17.20
2018-06-12T08:58:14.748Z,17.30
2018-06-12T09:00:48.842Z,17.30
2018-06-12T09:03:22.959Z,17.30
2018-06-12T09:05:57.084Z,17.10
2018-06-12T09:08:31.232Z,17.30
2018-06-12T09:11:05.450Z,17.40
2018-06-12T09:13:39.739Z,17.60
2018-06-12T09:16:13.951Z,17.20
2018-06-12T09:18:48.114Z,17.20
2018-06-12T09:21:22.828Z,17.20
2018-06-12T09:23:56.934Z,17.10
2018-06-12T09:26:31.667Z,17.00
2018-06-12T09:29:05.981Z,17.00
2018-06-12T09:31:40.156Z,17.10
2018-06-12T09:34:14.227Z,17.20
2018-06-12T09:36:48.838Z,17.30
2018-06-12T09:39:23.567Z,17.10
2018-06-12T09:41:58.528Z,17.10
2018-06-12T09:44:32.752Z,17.00
2018-06-12T09:47:06.935Z,17.10
2018-06-12T09:49:41.133Z,17.10
2018-06-12T09:52:15.777Z,17.10
2018-06-12T09:54:49.976Z,16.80
2018-06-12T09:57:24.226Z,16.90
2018-06-12T09:59:59.232Z,16.90
2018-06-12T10:02:33.484Z,16.90
2018-06-12T10:05:07.696Z,17.10
2018-06-12T10:07:41.813Z,17.00
2018-06-12T10:10:15.972Z,17.10
2018-06-12T10:12:52.935Z,16.90
2018-06-12T10:15:27.505Z,16.80
2018-06-12T10:18:01.675Z,16.80
2018-06-12T10:20:36.562Z,17.00
2018-06-12T10:23:10.705Z,16.90
2018-06-12T10:25:45.295Z,16.80
2018-06-12T10:28:19.423Z,16.70
2018-06-12T10:30:53.583Z,16.80
2018-06-12T10:33:27.575Z,16.80
2018-06-12T10:36:01.642Z,16.80
2018-06-12T10:38:35.746Z,17.00
2018-06-12T10:41:09.940Z,17.00
2018-06-12T10:43:44.038Z,16.80
2018-06-12T10:46:18.149Z,16.80
2018-06-12T10:48:52.136Z,16.90
2018-06-12T10:51:26.234Z,16.80
2018-06-12T10:54:00.261Z,16.60
2018-06-12T10:56:34.379Z,16.40
2018-06-12T10:59:08.502Z,16.40
2018-06-12T11:01:42.569Z,16.50
2018-06-12T11:04:16.498Z,16.70
2018-06-12T11:06:50.660Z,16.90
2018-06-12T11:09:24.761Z,17.20
2018-06-12T11:11:58.842Z,17.30
2018-06-12T11:14:32.790Z,17.30
2018-06-12T11:17:07.605Z,17.40
2018-06-12T11:19:42.438Z,17.60
2018-06-12T11:22:16.574Z,17.60
2018-06-12T11:24:50.664Z,17.50
2018-06-12T11:27:24.704Z,17.30
2018-06-12T11:29:58.761Z,17.30
2018-06-12T11:32:32.718Z,17.40
2018-06-12T11:35:06.803Z,17.50
2018-06-12T11:37:40.799Z,17.70
2018-06-12T11:40:14.968Z,17.70
2018-06-12T11:42:49.062Z,17.90
2018-06-12T11:45:23.190Z,17.90
2018-06-12T11:47:57.200Z,18.40
2018-06-12T11:50:31.450Z,18.60
2018-06-12T11:53:05.369Z,18.70
2018-06-12T11:55:39.562Z,18.80
2018-06-12T11:58:14.452Z,18.40
2018-06-12T12:00:48.561Z,18.40
2018-06-12T12:03:22.731Z,18.30
2018-06-12T12:06:05.557Z,18.50
2018-06-12T12:09:20.274Z,18.50
2018-06-12T12:11:54.337Z,18.30
2018-06-12T12:14:28.486Z,19.10
2018-06-12T12:17:02.678Z,18.90
2018-06-12T12:19:37.538Z,18.50
2018-06-12T12:22:11.611Z,18.50
2018-06-12T12:24:45.619Z,18.20
2018-06-12T12:27:19.662Z,18.20
2018-06-12T12:29:53.833Z,18.20
2018-06-12T12:32:28.614Z,19.30
2018-06-12T12:35:02.681Z,19.20
2018-06-12T12:37:36.849Z,18.90
2018-06-12T12:40:11.050Z,18.40
2018-06-12T12:42:45.733Z,18.20
2018-06-12T12:45:19.657Z,18.20
2018-06-12T12:47:53.773Z,18.40
2018-06-12T12:50:27.865Z,18.50
2018-06-12T12:53:01.897Z,18.70
2018-06-12T12:55:36.008Z,18.70
2018-06-12T12:58:10.808Z,18.80
2018-06-12T13:00:44.656Z,18.80
2018-06-12T13:03:18.667Z,19.00
2018-06-12T13:05:52.738Z,18.80
2018-06-12T13:08:27.569Z,18.90
2018-06-12T13:11:02.214Z,19.10
2018-06-12T13:13:36.107Z,19.00
2018-06-12T13:16:10.114Z,18.80
2018-06-12T13:18:44.880Z,18.50
2018-06-12T13:21:18.861Z,18.50
2018-06-12T13:23:52.969Z,18.40
2018-06-12T13:26:27.005Z,18.40
2018-06-12T13:29:01.029Z,18.50
2018-06-12T13:31:35.097Z,18.70
2018-06-12T13:34:09.066Z,18.30
2018-06-12T13:36:43.065Z,18.40
2018-06-12T13:39:17.158Z,18.70
2018-06-12T13:41:51.251Z,18.60
2018-06-12T13:44:26.088Z,18.50
2018-06-12T13:47:00.037Z,18.50
2018-06-12T13:49:34.120Z,18.20
2018-06-12T13:52:08.132Z,18.20
2018-06-12T13:54:42.727Z,18.30
2018-06-12T13:57:17.821Z,18.20
2018-06-12T13:59:51.910Z,18.60
2018-06-12T14:02:28.417Z,18.60
2018-06-12T14:05:03.226Z,18.60
2018-06-12T14:07:37.334Z,18.60
2018-06-12T14:10:11.464Z,18.90
2018-06-12T14:12:46.318Z,19.10
2018-06-12T14:15:20.396Z,19.10
2018-06-12T14:17:54.500Z,19.20
2018-06-12T14:20:28.573Z,19.40
2018-06-12T14:23:02.686Z,19.20
2018-06-12T14:25:36.752Z,18.90
2018-06-12T14:28:10.883Z,18.60
2018-06-12T14:30:45.025Z,18.60
2018-06-12T14:33:20.001Z,18.60
2018-06-12T14:35:54.278Z,18.60
2018-06-12T14:38:28.329Z,18.60
2018-06-12T14:41:03.047Z,18.30
2018-06-12T14:43:36.977Z,18.30
2018-06-12T14:46:10.988Z,18.30
2018-06-12T14:48:44.857Z,18.50
2018-06-12T14:51:18.894Z,18.50
2018-06-12T14:53:53.754Z,18.40
2018-06-12T14:56:27.723Z,18.40
2018-06-12T14:59:01.673Z,18.20
2018-06-12T15:01:35.590Z,18.20
2018-06-12T15:04:09.564Z,18.30
2018-06-12T15:06:43.620Z,18.40
2018-06-12T15:09:18.105Z,18.20
2018-06-12T15:11:52.264Z,18.30
2018-06-12T15:14:26.213Z,18.30
2018-06-12T15:17:00.313Z,18.30
2018-06-12T15:19:34.446Z,18.10
2018-06-12T15:22:08.646Z,18.10
2018-06-12T15:24:42.884Z,18.30
2018-06-12T15:27:17.409Z,18.20
2018-06-12T15:29:51.563Z,18.40
2018-06-12T15:32:25.694Z,18.30
2018-06-12T15:35:00.445Z,18.30
2018-06-12T15:37:35.420Z,18.30
2018-06-12T15:40:09.569Z,18.20
2018-06-12T15:42:43.744Z,18.30
2018-06-12T15:45:19.366Z,18.50
2018-06-12T15:47:53.758Z,18.50
2018-06-12T15:50:27.852Z,18.40
2018-06-12T15:53:02.595Z,18.50
2018-06-12T15:55:37.331Z,18.40
2018-06-12T15:58:11.533Z,18.40
2018-06-12T16:00:45.584Z,18.60
2018-06-12T16:03:19.926Z,18.40
2018-06-12T16:05:54.122Z,18.40
2018-06-12T16:08:28.201Z,18.40
2018-06-12T16:11:02.326Z,18.50
2018-06-12T16:13:36.418Z,18.60
2018-06-12T16:16:10.501Z,18.50
2018-06-12T16:18:44.547Z,18.60
2018-06-12T16:21:18.771Z,18.40
2018-06-12T16:23:52.852Z,18.40
2018-06-12T16:26:26.767Z,18.40
2018-06-12T16:29:00.857Z,18.40
2018-06-12T16:31:35.126Z,18.40
2018-06-12T16:34:09.083Z,18.30
2018-06-12T16:36:43.153Z,18.50
2018-06-12T16:39:17.306Z,18.30
2018-06-12T16:41:52.101Z,18.40
2018-06-12T16:44:26.178Z,18.40
2018-06-12T16:47:00.286Z,18.50
2018-06-12T16:49:34.362Z,18.50
2018-06-12T16:52:08.420Z,18.50
2018-06-12T16:54:42.611Z,18.50
2018-06-12T16:57:16.703Z,18.60
2018-06-12T16:59:50.827Z,18.50
2018-06-12T17:02:24.866Z,18.30
2018-06-12T17:04:58.985Z,18.30
2018-06-12T17:07:33.132Z,18.40
2018-06-12T17:10:07.131Z,18.40
2018-06-12T17:12:41.210Z,18.60
2018-06-12T17:15:15.291Z,18.60
2018-06-12T17:17:49.370Z,18.50
2018-06-12T17:20:23.464Z,18.40
2018-06-12T17:22:58.299Z,18.30
2018-06-12T17:25:32.429Z,18.30
2018-06-12T17:28:06.580Z,18.30
2018-06-12T17:30:40.643Z,18.20
2018-06-12T17:33:14.753Z,18.30
2018-06-12T17:35:49.552Z,18.40
2018-06-12T17:38:24.608Z,18.30
2018-06-12T17:40:58.634Z,18.30
2018-06-12T17:43:32.821Z,18.20
2018-06-12T17:46:06.827Z,18.20
2018-06-12T17:48:41.642Z,18.10
2018-06-12T17:51:15.666Z,18.10
2018-06-12T17:53:49.734Z,18.10
2018-06-12T17:56:23.893Z,18.10
2018-06-12T17:58:57.950Z,18.00
2018-06-12T18:01:32.197Z,18.20
2018-06-12T18:04:08.063Z,18.20
2018-06-12T18:06:41.960Z,18.20
2018-06-12T18:09:16.182Z,18.10
2018-06-12T18:11:50.167Z,18.10
2018-06-12T18:14:24.246Z,17.90
2018-06-12T18:16:59.079Z,18.10
2018-06-12T18:19:33.173Z,18.00
2018-06-12T18:22:08.006Z,18.10
2018-06-12T18:24:42.093Z,18.10
2018-06-12T18:27:16.118Z,18.00
2018-06-12T18:29:50.139Z,18.10
2018-06-12T18:32:24.531Z,18.10
2018-06-12T18:34:58.531Z,18.10
2018-06-12T18:37:32.589Z,18.00
2018-06-12T18:40:06.597Z,17.90
2018-06-12T18:42:40.651Z,17.80
2018-06-12T18:45:14.711Z,17.90
2018-06-12T18:47:48.854Z,17.90
2018-06-12T18:50:22.842Z,17.90
2018-06-12T18:52:56.856Z,17.90
2018-06-12T18:55:31.713Z,17.80
2018-06-12T18:58:05.729Z,17.80
2018-06-12T19:00:42.006Z,17.80
2018-06-12T19:03:15.937Z,17.80
2018-06-12T19:05:52.307Z,17.70
2018-06-12T19:08:28.035Z,17.80
2018-06-12T19:11:02.936Z,17.80
2018-06-12T19:13:37.696Z,17.90
2018-06-12T19:16:12.890Z,17.90
2018-06-12T19:18:47.648Z,17.90
2018-06-12T19:21:22.957Z,17.90
2018-06-12T19:23:56.962Z,17.70
2018-06-12T19:26:31.079Z,17.80
2018-06-12T19:29:05.218Z,17.90
2018-06-12T19:31:39.281Z,17.70
2018-06-12T19:34:13.717Z,17.90
2018-06-12T19:36:47.813Z,17.80
2018-06-12T19:39:21.897Z,17.70
2018-06-12T19:41:55.922Z,17.80
2018-06-12T19:44:30.234Z,17.70
2018-06-12T19:47:04.927Z,17.60
2018-06-12T19:49:39.056Z,17.60
2018-06-12T19:52:13.138Z,17.70
2018-06-12T19:54:47.052Z,17.70
2018-06-12T19:57:21.177Z,17.70
2018-06-12T19:59:55.174Z,17.60
2018-06-12T20:02:29.277Z,17.70
2018-06-12T20:05:03.395Z,17.60
2018-06-12T20:07:37.515Z,17.50
2018-06-12T20:10:12.883Z,17.60
2018-06-12T20:12:46.861Z,17.60
2018-06-12T20:15:20.930Z,17.60
2018-06-12T20:17:55.146Z,17.50
2018-06-12T20:20:29.304Z,17.60
2018-06-12T20:23:10.921Z,17.50
2018-06-12T20:25:44.970Z,17.50
2018-06-12T20:28:18.947Z,17.50
2018-06-12T20:30:52.946Z,17.60
2018-06-12T20:33:27.036Z,17.50
2018-06-12T20:36:01.922Z,17.50
2018-06-12T20:38:35.960Z,17.50
2018-06-12T20:41:10.126Z,17.50
2018-06-12T20:43:44.244Z,17.50
2018-06-12T20:46:18.328Z,17.50
2018-06-12T20:48:52.498Z,17.50
2018-06-12T20:51:26.687Z,17.50
2018-06-12T20:54:00.773Z,17.50
2018-06-12T20:56:34.826Z,17.50
2018-06-12T20:59:08.897Z,17.50
2018-06-12T21:01:42.878Z,17.50
2018-06-12T21:04:17.612Z,17.40
2018-06-12T21:06:51.609Z,17.40
2018-06-12T21:09:25.530Z,17.50
2018-06-12T21:11:59.539Z,17.50
2018-06-12T21:14:33.561Z,17.40
2018-06-12T21:17:07.649Z,17.40
2018-06-12T21:19:42.501Z,17.40
2018-06-12T21:22:16.380Z,17.40
2018-06-12T21:24:50.296Z,17.50
2018-06-12T21:27:24.301Z,17.50
2018-06-12T21:29:58.349Z,17.50
2018-06-12T21:32:32.458Z,17.60
2018-06-12T21:35:06.556Z,17.50
2018-06-12T21:37:40.896Z,17.50
2018-06-12T21:40:15.494Z,17.50
2018-06-12T21:42:50.164Z,17.40
2018-06-12T21:45:24.261Z,17.30
2018-06-12T21:47:58.320Z,17.40
2018-06-12T21:50:32.367Z,17.30
2018-06-12T21:53:06.376Z,17.30
2018-06-12T21:55:40.369Z,17.20
2018-06-12T21:58:14.481Z,17.20
2018-06-12T22:00:48.597Z,17.20
2018-06-12T22:03:22.693Z,17.30
2018-06-12T22:05:56.758Z,17.20
2018-06-12T22:08:30.801Z,17.20
2018-06-12T22:11:04.794Z,17.20
2018-06-12T22:13:38.705Z,17.20
2018-06-12T22:16:13.545Z,17.30
2018-06-12T22:18:47.604Z,17.30
2018-06-12T22:21:21.721Z,17.30
2018-06-12T22:23:55.845Z,17.30
2018-06-12T22:26:30.665Z,17.10
2018-06-12T22:29:05.302Z,17.10
2018-06-12T22:31:39.206Z,17.10
2018-06-12T22:34:13.225Z,17.10
2018-06-12T22:36:47.337Z,17.10
2018-06-12T22:39:21.383Z,17.20
2018-06-12T22:41:56.182Z,17.00
2018-06-12T22:44:30.152Z,17.10
2018-06-12T22:47:04.208Z,17.00
2018-06-12T22:49:38.094Z,17.00
2018-06-12T22:52:12.201Z,16.90
2018-06-12T22:54:46.313Z,16.90
2018-06-12T22:57:20.394Z,16.90
2018-06-12T22:59:54.237Z,16.90
2018-06-12T23:02:28.124Z,16.90
2018-06-12T23:05:02.082Z,17.00
2018-06-12T23:07:36.817Z,16.90
2018-06-12T23:10:10.941Z,16.80
2018-06-12T23:12:45.649Z,17.00
2018-06-12T23:15:19.649Z,16.90
2018-06-12T23:17:53.684Z,17.00
2018-06-12T23:20:36.416Z,17.00
2018-06-12T23:23:10.521Z,17.00
2018-06-12T23:25:45.222Z,16.90
2018-06-12T23:28:19.345Z,16.90
2018-06-12T23:30:53.977Z,16.90
2018-06-12T23:33:28.797Z,16.80
2018-06-12T23:36:03.628Z,16.80
2018-06-12T23:38:37.729Z,16.70
2018-06-12T23:41:11.604Z,16.70
2018-06-12T23:43:45.459Z,16.70
2018-06-12T23:46:20.192Z,16.60
2018-06-12T23:48:54.292Z,16.60
2018-06-12T23:51:29.131Z,16.70
2018-06-12T23:54:03.124Z,16.70
2018-06-12T23:56:37.878Z,16.60
2018-06-12T23:59:11.980Z,16.60
